sensor_id;sensor_type;location;lat;lon;timestamp;pressure;altitude;pressure_sealevel;temperature;humidity
15487;BME280;7845;53.698;10.078;2022-09-09T00:00:26;100436.81;;;22.35;100.00
15487;BME280;7845;53.698;10.078;2022-09-09T00:03:01;100437.59;;;22.37;100.00
15487;BME280;7845;53.698;10.078;2022-09-09T00:05:44;100433.50;;;22.45;100.00
15487;BME280;7845;53.698;10.078;2022-09-09T00:08:18;100424.59;;;22.60;100.00
15487;BME280;7845;53.698;10.078;2022-09-09T00:10:53;100430.72;;;22.61;100.00
15487;BME280;7845;53.698;10.078;2022-09-09T00:13:34;100432.47;;;22.48;100.00
15487;BME280;7845;53.698;10.078;2022-09-09T00:16:15;100439.47;;;22.35;100.00
15487;BME280;7845;53.698;10.078;2022-09-09T00:19:04;100432.19;;;22.38;100.00
15487;BME280;7845;53.698;10.078;2022-09-09T00:21:36;100438.66;;;22.48;100.00
15487;BME280;7845;53.698;10.078;2022-09-09T00:24:11;100433.13;;;22.51;100.00
15487;BME280;7845;53.698;10.078;2022-09-09T00:26:45;100441.38;;;22.47;100.00
15487;BME280;7845;53.698;10.078;2022-09-09T00:31:41;100436.44;;;22.41;100.00
15487;BME280;7845;53.698;10.078;2022-09-09T00:34:16;100441.69;;;22.56;100.00
15487;BME280;7845;53.698;10.078;2022-09-09T00:36:45;100442.72;;;22.54;100.00
15487;BME280;7845;53.698;10.078;2022-09-09T00:39:31;100434.25;;;22.47;100.00
15487;BME280;7845;53.698;10.078;2022-09-09T00:44:51;100425.59;;;22.58;100.00
15487;BME280;7845;53.698;10.078;2022-09-09T00:50:00;100415.38;;;22.66;100.00
15487;BME280;7845;53.698;10.078;2022-09-09T00:52:40;100415.47;;;22.65;100.00
15487;BME280;7845;53.698;10.078;2022-09-09T00:55:28;100422.31;;;22.69;100.00
15487;BME280;7845;53.698;10.078;2022-09-09T00:57:57;100423.19;;;22.69;100.00
15487;BME280;7845;53.698;10.078;2022-09-09T01:00:32;100422.13;;;22.72;100.00
15487;BME280;7845;53.698;10.078;2022-09-09T01:03:25;100430.53;;;22.64;100.00
15487;BME280;7845;53.698;10.078;2022-09-09T01:06:14;100419.94;;;22.78;100.00
15487;BME280;7845;53.698;10.078;2022-09-09T01:11:32;100437.63;;;22.65;100.00
15487;BME280;7845;53.698;10.078;2022-09-09T01:14:10;100434.88;;;22.67;100.00
15487;BME280;7845;53.698;10.078;2022-09-09T01:16:37;100423.19;;;22.69;100.00
15487;BME280;7845;53.698;10.078;2022-09-09T01:19:04;100421.44;;;22.68;100.00
15487;BME280;7845;53.698;10.078;2022-09-09T01:21:43;100422.97;;;22.72;100.00
15487;BME280;7845;53.698;10.078;2022-09-09T01:24:35;100421.25;;;22.71;100.00
15487;BME280;7845;53.698;10.078;2022-09-09T01:27:06;100414.41;;;22.67;100.00
15487;BME280;7845;53.698;10.078;2022-09-09T01:29:32;100418.31;;;22.47;100.00
15487;BME280;7845;53.698;10.078;2022-09-09T01:34:48;100418.22;;;22.49;100.00
15487;BME280;7845;53.698;10.078;2022-09-09T01:37:15;100408.50;;;22.62;100.00
15487;BME280;7845;53.698;10.078;2022-09-09T01:39:42;100413.28;;;22.57;100.00
15487;BME280;7845;53.698;10.078;2022-09-09T01:42:11;100420.59;;;22.68;100.00
15487;BME280;7845;53.698;10.078;2022-09-09T01:44:37;100411.91;;;22.64;100.00
15487;BME280;7845;53.698;10.078;2022-09-09T01:47:03;100412.97;;;22.47;100.00
15487;BME280;7845;53.698;10.078;2022-09-09T01:49:29;100417.38;;;22.48;100.00
15487;BME280;7845;53.698;10.078;2022-09-09T01:51:55;100421.91;;;22.46;100.00
15487;BME280;7845;53.698;10.078;2022-09-09T01:54:23;100419.06;;;22.64;100.00
15487;BME280;7845;53.698;10.078;2022-09-09T02:02:30;100413.66;;;22.37;100.00
15487;BME280;7845;53.698;10.078;2022-09-09T02:05:26;100409.75;;;22.42;100.00
15487;BME280;7845;53.698;10.078;2022-09-09T02:08:40;100402.66;;;22.43;100.00
15487;BME280;7845;53.698;10.078;2022-09-09T02:11:07;100410.31;;;22.47;100.00
15487;BME280;7845;53.698;10.078;2022-09-09T02:13:36;100415.84;;;22.44;100.00
15487;BME280;7845;53.698;10.078;2022-09-09T02:16:17;100417.66;;;22.30;100.00
15487;BME280;7845;53.698;10.078;2022-09-09T02:18:57;100414.97;;;22.30;100.00
15487;BME280;7845;53.698;10.078;2022-09-09T02:21:28;100412.63;;;22.39;100.00
15487;BME280;7845;53.698;10.078;2022-09-09T02:23:55;100415.06;;;22.28;100.00
15487;BME280;7845;53.698;10.078;2022-09-09T02:26:23;100421.06;;;22.32;100.00
15487;BME280;7845;53.698;10.078;2022-09-09T02:28:51;100416.88;;;22.42;100.00
15487;BME280;7845;53.698;10.078;2022-09-09T02:31:20;100416.13;;;22.26;100.00
15487;BME280;7845;53.698;10.078;2022-09-09T02:33:52;100411.09;;;22.21;100.00
15487;BME280;7845;53.698;10.078;2022-09-09T02:36:20;100409.19;;;22.23;100.00
15487;BME280;7845;53.698;10.078;2022-09-09T02:38:48;100414.22;;;22.28;100.00
15487;BME280;7845;53.698;10.078;2022-09-09T02:41:42;100412.88;;;22.21;100.00
15487;BME280;7845;53.698;10.078;2022-09-09T02:44:13;100405.84;;;22.20;100.00
15487;BME280;7845;53.698;10.078;2022-09-09T02:52:18;100410.31;;;22.19;100.00
15487;BME280;7845;53.698;10.078;2022-09-09T02:54:47;100415.63;;;22.19;100.00
15487;BME280;7845;53.698;10.078;2022-09-09T02:57:24;100411.16;;;22.20;100.00
15487;BME280;7845;53.698;10.078;2022-09-09T02:59:51;100414.69;;;22.20;100.00
15487;BME280;7845;53.698;10.078;2022-09-09T03:02:18;100410.72;;;22.13;100.00
15487;BME280;7845;53.698;10.078;2022-09-09T03:04:43;100405.78;;;22.21;100.00
15487;BME280;7845;53.698;10.078;2022-09-09T03:07:12;100411.47;;;22.29;100.00
15487;BME280;7845;53.698;10.078;2022-09-09T03:09:37;100409.94;;;22.25;100.00
15487;BME280;7845;53.698;10.078;2022-09-09T03:12:05;100413.38;;;22.13;100.00
15487;BME280;7845;53.698;10.078;2022-09-09T03:14:32;100410.78;;;22.12;100.00
15487;BME280;7845;53.698;10.078;2022-09-09T03:16:57;100413.16;;;22.02;100.00
15487;BME280;7845;53.698;10.078;2022-09-09T03:19:26;100419.63;;;21.98;100.00
15487;BME280;7845;53.698;10.078;2022-09-09T03:21:53;100411.16;;;21.91;100.00
15487;BME280;7845;53.698;10.078;2022-09-09T03:24:18;100418.19;;;22.07;100.00
15487;BME280;7845;53.698;10.078;2022-09-09T03:26:43;100412.69;;;22.10;100.00
15487;BME280;7845;53.698;10.078;2022-09-09T03:29:24;100415.81;;;22.16;100.00
15487;BME280;7845;53.698;10.078;2022-09-09T03:31:49;100419.06;;;22.07;100.00
15487;BME280;7845;53.698;10.078;2022-09-09T03:34:16;100419.91;;;22.08;100.00
15487;BME280;7845;53.698;10.078;2022-09-09T03:36:41;100420.44;;;21.98;100.00
15487;BME280;7845;53.698;10.078;2022-09-09T03:39:10;100417.41;;;22.04;100.00
15487;BME280;7845;53.698;10.078;2022-09-09T03:41:35;100409.91;;;21.97;100.00
15487;BME280;7845;53.698;10.078;2022-09-09T03:44:05;100411.03;;;21.93;100.00
15487;BME280;7845;53.698;10.078;2022-09-09T03:46:30;100417.50;;;21.89;100.00
15487;BME280;7845;53.698;10.078;2022-09-09T03:48:56;100410.88;;;21.80;100.00
15487;BME280;7845;53.698;10.078;2022-09-09T03:51:25;100421.44;;;21.82;100.00
15487;BME280;7845;53.698;10.078;2022-09-09T03:53:50;100417.00;;;21.82;100.00
15487;BME280;7845;53.698;10.078;2022-09-09T03:56:16;100415.06;;;21.84;100.00
15487;BME280;7845;53.698;10.078;2022-09-09T03:58:41;100418.41;;;21.74;100.00
15487;BME280;7845;53.698;10.078;2022-09-09T04:01:08;100418.66;;;21.69;100.00
15487;BME280;7845;53.698;10.078;2022-09-09T04:03:34;100431.19;;;21.67;100.00
15487;BME280;7845;53.698;10.078;2022-09-09T04:06:01;100426.94;;;21.79;100.00
15487;BME280;7845;53.698;10.078;2022-09-09T04:08:28;100421.81;;;22.05;100.00
15487;BME280;7845;53.698;10.078;2022-09-09T04:10:59;100422.28;;;21.98;100.00
15487;BME280;7845;53.698;10.078;2022-09-09T04:13:34;100428.19;;;21.87;100.00
15487;BME280;7845;53.698;10.078;2022-09-09T04:16:01;100431.31;;;21.80;100.00
15487;BME280;7845;53.698;10.078;2022-09-09T04:18:27;100428.78;;;21.92;100.00
15487;BME280;7845;53.698;10.078;2022-09-09T04:20:55;100432.03;;;21.97;100.00
15487;BME280;7845;53.698;10.078;2022-09-09T04:23:25;100432.06;;;22.12;100.00
15487;BME280;7845;53.698;10.078;2022-09-09T04:25:54;100430.56;;;22.22;100.00
15487;BME280;7845;53.698;10.078;2022-09-09T04:28:23;100434.03;;;21.94;100.00
15487;BME280;7845;53.698;10.078;2022-09-09T04:30:54;100424.09;;;22.12;100.00
15487;BME280;7845;53.698;10.078;2022-09-09T04:33:23;100431.50;;;22.07;100.00
15487;BME280;7845;53.698;10.078;2022-09-09T04:36:00;100443.72;;;21.95;100.00
15487;BME280;7845;53.698;10.078;2022-09-09T04:38:26;100439.53;;;22.05;100.00
15487;BME280;7845;53.698;10.078;2022-09-09T04:40:51;100442.69;;;21.97;100.00
15487;BME280;7845;53.698;10.078;2022-09-09T04:43:19;100431.56;;;22.05;100.00
15487;BME280;7845;53.698;10.078;2022-09-09T04:45:50;100436.34;;;22.14;100.00
15487;BME280;7845;53.698;10.078;2022-09-09T04:48:16;100443.25;;;22.17;100.00
15487;BME280;7845;53.698;10.078;2022-09-09T04:50:41;100447.63;;;22.03;100.00
15487;BME280;7845;53.698;10.078;2022-09-09T04:53:07;100453.25;;;22.13;100.00
15487;BME280;7845;53.698;10.078;2022-09-09T04:55:33;100451.97;;;22.04;100.00
15487;BME280;7845;53.698;10.078;2022-09-09T04:58:04;100454.38;;;21.79;100.00
15487;BME280;7845;53.698;10.078;2022-09-09T05:00:30;100453.16;;;21.85;100.00
15487;BME280;7845;53.698;10.078;2022-09-09T05:02:55;100453.16;;;21.85;100.00
15487;BME280;7845;53.698;10.078;2022-09-09T05:05:21;100462.59;;;21.90;100.00
15487;BME280;7845;53.698;10.078;2022-09-09T05:07:46;100456.53;;;22.02;100.00
15487;BME280;7845;53.698;10.078;2022-09-09T05:10:12;100453.63;;;22.21;100.00
15487;BME280;7845;53.698;10.078;2022-09-09T05:12:41;100446.03;;;22.29;100.00
15487;BME280;7845;53.698;10.078;2022-09-09T05:15:07;100449.06;;;22.23;100.00
15487;BME280;7845;53.698;10.078;2022-09-09T05:17:33;100445.28;;;22.13;100.00
15487;BME280;7845;53.698;10.078;2022-09-09T05:19:58;100449.56;;;22.16;100.00
15487;BME280;7845;53.698;10.078;2022-09-09T05:22:24;100451.25;;;22.17;100.00
15487;BME280;7845;53.698;10.078;2022-09-09T05:24:49;100462.75;;;22.17;100.00
15487;BME280;7845;53.698;10.078;2022-09-09T05:27:18;100460.56;;;22.10;100.00
15487;BME280;7845;53.698;10.078;2022-09-09T05:29:45;100459.69;;;22.09;100.00
15487;BME280;7845;53.698;10.078;2022-09-09T05:32:10;100459.13;;;22.04;100.00
15487;BME280;7845;53.698;10.078;2022-09-09T05:34:35;100459.31;;;22.01;100.00
15487;BME280;7845;53.698;10.078;2022-09-09T05:37:02;100464.66;;;22.15;100.00
15487;BME280;7845;53.698;10.078;2022-09-09T05:39:29;100456.38;;;22.20;100.00
15487;BME280;7845;53.698;10.078;2022-09-09T05:41:54;100456.56;;;22.17;100.00
15487;BME280;7845;53.698;10.078;2022-09-09T05:44:20;100459.69;;;22.09;100.00
15487;BME280;7845;53.698;10.078;2022-09-09T05:46:45;100462.50;;;21.92;100.00
15487;BME280;7845;53.698;10.078;2022-09-09T05:49:11;100464.38;;;21.90;100.00
15487;BME280;7845;53.698;10.078;2022-09-09T05:51:36;100471.31;;;21.92;100.00
15487;BME280;7845;53.698;10.078;2022-09-09T05:54:01;100467.72;;;21.78;100.00
15487;BME280;7845;53.698;10.078;2022-09-09T05:56:29;100475.63;;;21.79;100.00
15487;BME280;7845;53.698;10.078;2022-09-09T05:58:58;100474.47;;;21.83;100.00
15487;BME280;7845;53.698;10.078;2022-09-09T06:01:29;100478.75;;;22.01;100.00
15487;BME280;7845;53.698;10.078;2022-09-09T06:03:56;100479.59;;;22.02;100.00
15487;BME280;7845;53.698;10.078;2022-09-09T06:06:26;100490.41;;;21.99;100.00
15487;BME280;7845;53.698;10.078;2022-09-09T06:08:56;100489.66;;;21.97;100.00
15487;BME280;7845;53.698;10.078;2022-09-09T06:11:30;100487.22;;;22.08;100.00
15487;BME280;7845;53.698;10.078;2022-09-09T06:13:56;100488.25;;;22.05;100.00
15487;BME280;7845;53.698;10.078;2022-09-09T06:16:24;100489.13;;;22.06;100.00
15487;BME280;7845;53.698;10.078;2022-09-09T06:18:50;100491.31;;;22.14;100.00
15487;BME280;7845;53.698;10.078;2022-09-09T06:21:24;100499.41;;;22.12;100.00
15487;BME280;7845;53.698;10.078;2022-09-09T06:23:53;100498.84;;;22.21;100.00
15487;BME280;7845;53.698;10.078;2022-09-09T06:26:33;100501.72;;;22.32;100.00
15487;BME280;7845;53.698;10.078;2022-09-09T06:29:00;100499.53;;;22.39;100.00
15487;BME280;7845;53.698;10.078;2022-09-09T06:31:30;100510.34;;;22.36;100.00
15487;BME280;7845;53.698;10.078;2022-09-09T06:33:57;100520.13;;;22.35;100.00
15487;BME280;7845;53.698;10.078;2022-09-09T06:36:25;100511.47;;;22.32;100.00
15487;BME280;7845;53.698;10.078;2022-09-09T06:38:54;100513.19;;;22.33;100.00
15487;BME280;7845;53.698;10.078;2022-09-09T06:41:24;100512.34;;;22.32;100.00
15487;BME280;7845;53.698;10.078;2022-09-09T06:43:57;100507.88;;;22.33;100.00
15487;BME280;7845;53.698;10.078;2022-09-09T06:46:26;100506.28;;;22.44;100.00
15487;BME280;7845;53.698;10.078;2022-09-09T06:48:53;100511.59;;;22.44;100.00
15487;BME280;7845;53.698;10.078;2022-09-09T06:51:21;100512.28;;;22.48;100.00
15487;BME280;7845;53.698;10.078;2022-09-09T06:53:52;100501.16;;;22.55;100.00
15487;BME280;7845;53.698;10.078;2022-09-09T06:56:19;100510.00;;;22.56;100.00
15487;BME280;7845;53.698;10.078;2022-09-09T06:58:45;100506.09;;;22.61;100.00
15487;BME280;7845;53.698;10.078;2022-09-09T07:01:16;100498.31;;;22.58;100.00
15487;BME280;7845;53.698;10.078;2022-09-09T07:03:45;100506.63;;;22.68;100.00
15487;BME280;7845;53.698;10.078;2022-09-09T07:06:21;100503.09;;;22.68;100.00
15487;BME280;7845;53.698;10.078;2022-09-09T07:08:53;100514.69;;;22.81;100.00
15487;BME280;7845;53.698;10.078;2022-09-09T07:13:46;100521.63;;;22.97;100.00
15487;BME280;7845;53.698;10.078;2022-09-09T07:16:15;100514.56;;;23.10;100.00
15487;BME280;7845;53.698;10.078;2022-09-09T07:18:41;100509.75;;;23.30;100.00
15487;BME280;7845;53.698;10.078;2022-09-09T07:21:16;100513.28;;;23.30;100.00
15487;BME280;7845;53.698;10.078;2022-09-09T07:23:43;100514.47;;;23.26;100.00
15487;BME280;7845;53.698;10.078;2022-09-09T07:26:11;100515.31;;;23.41;100.00
15487;BME280;7845;53.698;10.078;2022-09-09T07:28:38;100527.31;;;23.60;100.00
15487;BME280;7845;53.698;10.078;2022-09-09T07:31:05;100521.59;;;23.66;100.00
15487;BME280;7845;53.698;10.078;2022-09-09T07:33:34;100523.75;;;23.74;100.00
15487;BME280;7845;53.698;10.078;2022-09-09T07:36:13;100526.28;;;24.02;100.00
15487;BME280;7845;53.698;10.078;2022-09-09T07:38:47;100520.38;;;24.11;100.00
15487;BME280;7845;53.698;10.078;2022-09-09T07:41:22;100521.09;;;24.13;100.00
15487;BME280;7845;53.698;10.078;2022-09-09T07:43:55;100514.72;;;24.16;100.00
15487;BME280;7845;53.698;10.078;2022-09-09T07:46:24;100526.56;;;24.37;100.00
15487;BME280;7845;53.698;10.078;2022-09-09T07:48:53;100526.38;;;24.28;100.00
15487;BME280;7845;53.698;10.078;2022-09-09T07:51:33;100530.13;;;24.25;100.00
15487;BME280;7845;53.698;10.078;2022-09-09T07:54:02;100519.84;;;24.32;100.00
15487;BME280;7845;53.698;10.078;2022-09-09T07:56:29;100530.53;;;24.19;100.00
15487;BME280;7845;53.698;10.078;2022-09-09T07:58:58;100538.09;;;24.12;100.00
15487;BME280;7845;53.698;10.078;2022-09-09T08:01:32;100532.44;;;24.17;100.00
15487;BME280;7845;53.698;10.078;2022-09-09T08:06:25;100539.91;;;24.37;100.00
15487;BME280;7845;53.698;10.078;2022-09-09T08:08:52;100539.63;;;24.42;100.00
15487;BME280;7845;53.698;10.078;2022-09-09T08:11:18;100534.50;;;24.51;100.00
15487;BME280;7845;53.698;10.078;2022-09-09T08:13:44;100535.91;;;24.57;100.00
15487;BME280;7845;53.698;10.078;2022-09-09T08:16:28;100530.44;;;24.58;100.00
15487;BME280;7845;53.698;10.078;2022-09-09T08:18:55;100533.22;;;24.69;100.00
15487;BME280;7845;53.698;10.078;2022-09-09T08:21:23;100538.88;;;24.65;100.00
15487;BME280;7845;53.698;10.078;2022-09-09T08:23:51;100536.97;;;24.67;100.00
15487;BME280;7845;53.698;10.078;2022-09-09T08:26:26;100547.22;;;24.60;100.00
15487;BME280;7845;53.698;10.078;2022-09-09T08:28:53;100547.09;;;24.62;100.00
15487;BME280;7845;53.698;10.078;2022-09-09T08:31:22;100553.94;;;24.66;100.00
15487;BME280;7845;53.698;10.078;2022-09-09T08:33:47;100555.22;;;24.73;100.00
15487;BME280;7845;53.698;10.078;2022-09-09T08:36:18;100545.81;;;24.80;100.00
15487;BME280;7845;53.698;10.078;2022-09-09T08:38:47;100556.19;;;24.97;100.00
15487;BME280;7845;53.698;10.078;2022-09-09T08:47:24;100549.38;;;24.81;100.00
15487;BME280;7845;53.698;10.078;2022-09-09T08:58:21;100565.78;;;24.37;100.00
15487;BME280;7845;53.698;10.078;2022-09-09T09:04:00;100559.59;;;24.36;100.00
15487;BME280;7845;53.698;10.078;2022-09-09T09:09:13;100573.03;;;24.47;100.00
15487;BME280;7845;53.698;10.078;2022-09-09T09:14:24;100565.06;;;24.60;100.00
15487;BME280;7845;53.698;10.078;2022-09-09T09:17:04;100573.72;;;24.63;100.00
15487;BME280;7845;53.698;10.078;2022-09-09T09:19:32;100575.28;;;24.53;100.00
15487;BME280;7845;53.698;10.078;2022-09-09T09:22:18;100581.16;;;24.58;100.00
15487;BME280;7845;53.698;10.078;2022-09-09T09:25:18;100573.50;;;24.66;100.00
15487;BME280;7845;53.698;10.078;2022-09-09T09:27:59;100566.22;;;24.68;100.00
15487;BME280;7845;53.698;10.078;2022-09-09T09:30:35;100571.22;;;24.73;100.00
15487;BME280;7845;53.698;10.078;2022-09-09T09:33:18;100567.28;;;24.66;100.00
15487;BME280;7845;53.698;10.078;2022-09-09T09:35:45;100577.44;;;24.73;100.00
15487;BME280;7845;53.698;10.078;2022-09-09T09:38:16;100577.44;;;24.73;100.00
15487;BME280;7845;53.698;10.078;2022-09-09T09:40:53;100564.34;;;24.83;100.00
15487;BME280;7845;53.698;10.078;2022-09-09T09:43:36;100575.31;;;24.91;100.00
15487;BME280;7845;53.698;10.078;2022-09-09T09:46:18;100566.25;;;24.94;100.00
15487;BME280;7845;53.698;10.078;2022-09-09T09:48:44;100563.78;;;25.03;100.00
15487;BME280;7845;53.698;10.078;2022-09-09T09:51:23;100565.28;;;25.07;100.00
15487;BME280;7845;53.698;10.078;2022-09-09T09:53:53;100565.78;;;25.12;100.00
15487;BME280;7845;53.698;10.078;2022-09-09T09:56:28;100567.50;;;25.13;100.00
15487;BME280;7845;53.698;10.078;2022-09-09T09:59:00;100569.75;;;25.19;100.00
15487;BME280;7845;53.698;10.078;2022-09-09T10:01:28;100565.47;;;25.17;100.00
15487;BME280;7845;53.698;10.078;2022-09-09T10:06:35;100568.13;;;25.29;100.00
15487;BME280;7845;53.698;10.078;2022-09-09T10:09:26;100570.38;;;25.36;100.00
15487;BME280;7845;53.698;10.078;2022-09-09T10:12:24;100577.31;;;25.38;100.00
15487;BME280;7845;53.698;10.078;2022-09-09T10:15:18;100572.84;;;25.26;100.00
15487;BME280;7845;53.698;10.078;2022-09-09T10:18:19;100573.78;;;25.38;100.00
15487;BME280;7845;53.698;10.078;2022-09-09T10:24:56;100558.25;;;25.43;100.00
15487;BME280;7845;53.698;10.078;2022-09-09T10:32:37;100553.16;;;25.27;100.00
15487;BME280;7845;53.698;10.078;2022-09-09T10:57:42;100545.06;;;25.16;96.13
15487;BME280;7845;53.698;10.078;2022-09-09T11:00:35;100548.91;;;25.12;95.89
15487;BME280;7845;53.698;10.078;2022-09-09T11:03:04;100544.25;;;25.03;94.46
15487;BME280;7845;53.698;10.078;2022-09-09T11:05:46;100547.13;;;25.00;98.41
15487;BME280;7845;53.698;10.078;2022-09-09T11:08:18;100551.41;;;25.02;97.30
15487;BME280;7845;53.698;10.078;2022-09-09T11:13:35;100546.06;;;25.02;96.80
15487;BME280;7845;53.698;10.078;2022-09-09T11:16:14;100556.81;;;25.13;97.03
15487;BME280;7845;53.698;10.078;2022-09-09T11:18:42;100546.28;;;24.99;98.29
15487;BME280;7845;53.698;10.078;2022-09-09T11:21:20;100545.00;;;24.92;97.43
15487;BME280;7845;53.698;10.078;2022-09-09T11:23:55;100541.88;;;24.98;96.50
15487;BME280;7845;53.698;10.078;2022-09-09T11:26:31;100539.47;;;25.31;94.66
15487;BME280;7845;53.698;10.078;2022-09-09T11:34:50;100538.81;;;25.77;88.79
15487;BME280;7845;53.698;10.078;2022-09-09T11:37:49;100549.03;;;25.59;89.94
15487;BME280;7845;53.698;10.078;2022-09-09T11:40:23;100553.00;;;25.54;90.15
15487;BME280;7845;53.698;10.078;2022-09-09T11:42:49;100547.50;;;25.92;88.88
15487;BME280;7845;53.698;10.078;2022-09-09T11:45:26;100555.47;;;25.80;88.70
15487;BME280;7845;53.698;10.078;2022-09-09T11:47:58;100544.72;;;25.69;89.06
15487;BME280;7845;53.698;10.078;2022-09-09T11:52:50;100556.09;;;25.84;90.02
15487;BME280;7845;53.698;10.078;2022-09-09T11:55:29;100556.03;;;25.97;88.50
15487;BME280;7845;53.698;10.078;2022-09-09T11:58:05;100546.59;;;26.04;88.09
15487;BME280;7845;53.698;10.078;2022-09-09T12:00:43;100551.03;;;25.68;90.30
15487;BME280;7845;53.698;10.078;2022-09-09T12:03:41;100553.19;;;25.87;91.96
15487;BME280;7845;53.698;10.078;2022-09-09T12:06:30;100556.25;;;25.94;90.07
15487;BME280;7845;53.698;10.078;2022-09-09T12:09:17;100551.53;;;26.21;87.48
15487;BME280;7845;53.698;10.078;2022-09-09T12:11:43;100544.53;;;26.31;86.03
15487;BME280;7845;53.698;10.078;2022-09-09T12:14:20;100549.50;;;26.35;85.31
15487;BME280;7845;53.698;10.078;2022-09-09T12:16:46;100540.63;;;26.35;86.46
15487;BME280;7845;53.698;10.078;2022-09-09T12:22:05;100535.72;;;26.64;85.23
15487;BME280;7845;53.698;10.078;2022-09-09T12:24:36;100527.28;;;26.68;83.37
15487;BME280;7845;53.698;10.078;2022-09-09T12:27:31;100543.59;;;26.54;84.51
15487;BME280;7845;53.698;10.078;2022-09-09T12:32:27;100543.50;;;26.67;84.34
15487;BME280;7845;53.698;10.078;2022-09-09T12:35:03;100546.19;;;26.67;83.73
15487;BME280;7845;53.698;10.078;2022-09-09T12:37:51;100548.84;;;26.67;83.79
15487;BME280;7845;53.698;10.078;2022-09-09T12:40:20;100553.44;;;26.43;83.66
15487;BME280;7845;53.698;10.078;2022-09-09T12:42:46;100550.22;;;26.26;85.22
15487;BME280;7845;53.698;10.078;2022-09-09T12:45:23;100548.38;;;26.16;85.26
15487;BME280;7845;53.698;10.078;2022-09-09T12:50:26;100547.66;;;26.25;87.09
15487;BME280;7845;53.698;10.078;2022-09-09T12:52:59;100550.44;;;26.23;86.97
15487;BME280;7845;53.698;10.078;2022-09-09T12:55:31;100540.53;;;26.13;86.88
15487;BME280;7845;53.698;10.078;2022-09-09T12:57:59;100539.28;;;26.29;86.49
15487;BME280;7845;53.698;10.078;2022-09-09T13:00:26;100538.44;;;26.05;87.96
15487;BME280;7845;53.698;10.078;2022-09-09T13:02:59;100534.06;;;26.28;87.48
15487;BME280;7845;53.698;10.078;2022-09-09T13:05:35;100539.91;;;26.33;86.87
15487;BME280;7845;53.698;10.078;2022-09-09T13:08:03;100547.09;;;26.44;88.04
15487;BME280;7845;53.698;10.078;2022-09-09T13:10:32;100555.47;;;26.28;91.06
15487;BME280;7845;53.698;10.078;2022-09-09T13:12:58;100559.34;;;26.35;91.08
15487;BME280;7845;53.698;10.078;2022-09-09T13:15:28;100555.34;;;26.40;94.70
15487;BME280;7845;53.698;10.078;2022-09-09T13:17:57;100548.03;;;26.31;97.62
15487;BME280;7845;53.698;10.078;2022-09-09T13:20:24;100553.72;;;26.16;99.63
15487;BME280;7845;53.698;10.078;2022-09-09T13:22:51;100549.50;;;26.35;99.84
15487;BME280;7845;53.698;10.078;2022-09-09T13:25:28;100550.75;;;26.43;100.00
15487;BME280;7845;53.698;10.078;2022-09-09T13:28:02;100549.94;;;26.18;100.00
15487;BME280;7845;53.698;10.078;2022-09-09T13:30:29;100555.56;;;26.03;100.00
15487;BME280;7845;53.698;10.078;2022-09-09T13:36:00;100568.03;;;25.91;100.00
15487;BME280;7845;53.698;10.078;2022-09-09T13:38:28;100562.25;;;25.97;100.00
15487;BME280;7845;53.698;10.078;2022-09-09T13:41:03;100565.81;;;25.85;100.00
15487;BME280;7845;53.698;10.078;2022-09-09T13:43:46;100578.84;;;25.66;100.00
15487;BME280;7845;53.698;10.078;2022-09-09T13:46:43;100593.97;;;25.54;100.00
15487;BME280;7845;53.698;10.078;2022-09-09T13:54:05;100601.38;;;25.13;100.00
15487;BME280;7845;53.698;10.078;2022-09-09T13:56:32;100602.25;;;25.01;100.00
15487;BME280;7845;53.698;10.078;2022-09-09T13:58:58;100601.72;;;24.96;100.00
15487;BME280;7845;53.698;10.078;2022-09-09T14:01:23;100600.66;;;24.98;100.00
15487;BME280;7845;53.698;10.078;2022-09-09T14:03:48;100606.94;;;24.97;100.00
15487;BME280;7845;53.698;10.078;2022-09-09T14:06:14;100611.53;;;24.95;100.00
15487;BME280;7845;53.698;10.078;2022-09-09T14:08:39;100614.56;;;24.91;100.00
15487;BME280;7845;53.698;10.078;2022-09-09T14:11:05;100608.78;;;24.84;100.00
15487;BME280;7845;53.698;10.078;2022-09-09T14:13:31;100616.69;;;25.11;100.00
15487;BME280;7845;53.698;10.078;2022-09-09T14:15:57;100622.13;;;25.09;100.00
15487;BME280;7845;53.698;10.078;2022-09-09T14:18:22;100616.16;;;24.93;100.00
15487;BME280;7845;53.698;10.078;2022-09-09T14:20:48;100617.00;;;24.81;100.00
15487;BME280;7845;53.698;10.078;2022-09-09T14:23:15;100609.59;;;24.72;100.00
15487;BME280;7845;53.698;10.078;2022-09-09T14:25:42;100610.97;;;24.65;100.00
15487;BME280;7845;53.698;10.078;2022-09-09T14:28:12;100616.50;;;24.62;100.00
15487;BME280;7845;53.698;10.078;2022-09-09T14:30:39;100607.03;;;24.58;100.00
15487;BME280;7845;53.698;10.078;2022-09-09T14:33:06;100595.06;;;24.63;100.00
15487;BME280;7845;53.698;10.078;2022-09-09T14:35:32;100587.78;;;24.53;100.00
15487;BME280;7845;53.698;10.078;2022-09-09T14:37:58;100591.31;;;24.53;100.00
15487;BME280;7845;53.698;10.078;2022-09-09T14:40:23;100585.44;;;24.48;100.00
15487;BME280;7845;53.698;10.078;2022-09-09T14:42:49;100580.31;;;24.45;100.00
15487;BME280;7845;53.698;10.078;2022-09-09T14:45:14;100591.28;;;24.41;100.00
15487;BME280;7845;53.698;10.078;2022-09-09T14:47:39;100589.69;;;24.38;100.00
15487;BME280;7845;53.698;10.078;2022-09-09T14:50:05;100588.81;;;24.38;100.00
15487;BME280;7845;53.698;10.078;2022-09-09T14:52:31;100582.47;;;24.65;100.00
15487;BME280;7845;53.698;10.078;2022-09-09T14:54:56;100591.06;;;24.44;100.00